createdAt,value
2023-02-11T00:02:16.332Z,101769.52
2023-02-11T00:04:44.881Z,101769.98
2023-02-11T00:07:13.350Z,101766.77
2023-02-11T00:09:41.744Z,101767.86
2023-02-11T00:12:13.471Z,101765.23
2023-02-11T00:14:53.768Z,101759.02
2023-02-11T00:17:22.843Z,101760.33
2023-02-11T00:19:52.379Z,101759.02
2023-02-11T00:22:21.356Z,101757.81
2023-02-11T00:24:51.265Z,101758.33
2023-02-11T00:27:20.053Z,101758.25
2023-02-11T00:29:48.743Z,101757.23
2023-02-11T00:32:17.729Z,101760.66
2023-02-11T00:34:46.589Z,101755.09
2023-02-11T00:37:15.196Z,101749.93
2023-02-11T00:39:44.185Z,101748.86
2023-02-11T00:42:15.851Z,101756.48
2023-02-11T00:44:46.985Z,101765.96
2023-02-11T00:47:18.841Z,101760.51
2023-02-11T00:49:47.535Z,101757.02
2023-02-11T00:52:16.217Z,101751.09
2023-02-11T00:54:44.900Z,101746.27
2023-02-11T00:57:13.393Z,101739.95
2023-02-11T00:59:42.186Z,101735.55
2023-02-11T01:02:11.171Z,101733.96
2023-02-11T01:04:40.069Z,101738.67
2023-02-11T01:07:09.853Z,101729.87
2023-02-11T01:09:39.636Z,101728.59
2023-02-11T01:12:08.580Z,101724.35
2023-02-11T01:14:37.591Z,101727.01
2023-02-11T01:17:07.045Z,101725.78
2023-02-11T01:19:37.823Z,101720.06
2023-02-11T01:22:08.557Z,101716.56
2023-02-11T01:24:37.551Z,101701.48
2023-02-11T01:27:07.265Z,101690.55
2023-02-11T01:29:36.357Z,101685.58
2023-02-11T01:32:05.592Z,101691.27
2023-02-11T01:34:34.127Z,101689.32
2023-02-11T01:37:02.709Z,101684.49
2023-02-11T01:39:34.204Z,101678.27
2023-02-11T01:42:03.058Z,101669.34
2023-02-11T01:44:35.834Z,101662.47
2023-02-11T01:47:06.593Z,101650.52
2023-02-11T01:49:39.666Z,101655.23
2023-02-11T01:52:19.903Z,101649.35
2023-02-11T01:55:11.431Z,101645.52
2023-02-11T01:57:43.511Z,101637.91
2023-02-11T02:00:26.046Z,101628.29
2023-02-11T02:03:00.846Z,101614.02
2023-02-11T02:05:33.837Z,101624.04
2023-02-11T02:08:10.399Z,101622.52
2023-02-11T02:10:43.672Z,101616.53
2023-02-11T02:13:12.781Z,101620.83
2023-02-11T02:15:49.427Z,101622.59
2023-02-11T02:18:42.957Z,101609.69
2023-02-11T02:21:54.411Z,101606.55
2023-02-11T02:24:28.628Z,101601.88
2023-02-11T02:27:18.107Z,101596.83
2023-02-11T02:29:58.770Z,101587.69
2023-02-11T02:32:36.524Z,101591.79
2023-02-11T02:35:34.851Z,101583.09
2023-02-11T02:38:16.331Z,101576.44
2023-02-11T02:41:03.763Z,101576.29
2023-02-11T02:43:33.680Z,101582.79
2023-02-11T02:46:21.336Z,101575.87
2023-02-11T02:48:52.813Z,101559.36
2023-02-11T02:51:39.573Z,101552.77
2023-02-11T02:54:14.501Z,101554.46
2023-02-11T02:57:12.174Z,101551.07
2023-02-11T03:00:11.574Z,101548.97
2023-02-11T03:02:59.725Z,101551.22
2023-02-11T03:05:48.591Z,101541.09
2023-02-11T03:08:47.161Z,101530.98
2023-02-11T03:11:18.650Z,101523.83
2023-02-11T03:13:49.343Z,101520.79
2023-02-11T03:16:25.795Z,101520.55
2023-02-11T03:19:06.277Z,101519.86
2023-02-11T03:21:38.693Z,101514.03
2023-02-11T03:24:11.072Z,101523.58
2023-02-11T03:26:46.972Z,101534.28
2023-02-11T03:29:15.471Z,101530.60
2023-02-11T03:31:53.138Z,101525.09
2023-02-11T03:34:24.384Z,101526.55
2023-02-11T03:37:02.814Z,101533.44
2023-02-11T03:39:37.235Z,101536.44
2023-02-11T03:42:10.048Z,101536.09
2023-02-11T03:44:45.371Z,101533.35
2023-02-11T03:47:16.094Z,101532.60
2023-02-11T03:49:47.964Z,101527.59
2023-02-11T03:52:18.799Z,101516.30
2023-02-11T03:54:51.677Z,101514.92
2023-02-11T03:57:19.952Z,101521.48
2023-02-11T04:00:01.569Z,101518.44
2023-02-11T04:02:41.494Z,101512.83
2023-02-11T04:05:12.640Z,101510.85
2023-02-11T04:07:41.217Z,101507.71
2023-02-11T04:10:11.746Z,101501.55
2023-02-11T04:12:40.541Z,101499.05
2023-02-11T04:15:09.692Z,101493.45
2023-02-11T04:17:38.727Z,101484.86
2023-02-11T04:20:08.419Z,101484.15
2023-02-11T04:22:37.634Z,101480.42
2023-02-11T04:25:06.938Z,101467.64
2023-02-11T04:27:35.723Z,101466.09
2023-02-11T04:30:06.057Z,101467.44
2023-02-11T04:32:34.525Z,101462.11
2023-02-11T04:35:03.833Z,101460.98
2023-02-11T04:37:32.198Z,101464.45
2023-02-11T04:40:00.492Z,101461.63
2023-02-11T04:42:28.873Z,101459.41
2023-02-11T04:44:57.339Z,101458.58
2023-02-11T04:47:25.696Z,101456.31
2023-02-11T04:49:54.006Z,101458.70
2023-02-11T04:52:22.393Z,101459.89
2023-02-11T04:54:51.168Z,101466.17
2023-02-11T04:57:19.447Z,101460.98
2023-02-11T04:59:48.357Z,101454.18
2023-02-11T05:02:16.560Z,101456.21
2023-02-11T05:04:45.210Z,101457.30
2023-02-11T05:07:14.400Z,101451.73
2023-02-11T05:09:43.184Z,101452.21
2023-02-11T05:12:11.982Z,101449.41
2023-02-11T05:14:40.965Z,101438.52
2023-02-11T05:17:09.447Z,101435.36
2023-02-11T05:19:37.831Z,101423.82
2023-02-11T05:22:06.724Z,101414.14
2023-02-11T05:24:35.398Z,101410.57
2023-02-11T05:27:04.009Z,101410.92
2023-02-11T05:29:32.268Z,101414.94
2023-02-11T05:32:00.695Z,101412.35
2023-02-11T05:34:29.023Z,101404.95
2023-02-11T05:36:57.458Z,101405.90
2023-02-11T05:39:25.783Z,101407.88
2023-02-11T05:41:54.162Z,101402.69
2023-02-11T05:44:22.427Z,101398.70
2023-02-11T05:46:50.809Z,101406.34
2023-02-11T05:49:19.531Z,101412.19
2023-02-11T05:51:47.996Z,101413.83
2023-02-11T05:54:17.294Z,101410.55
2023-02-11T05:56:45.658Z,101410.85
2023-02-11T05:59:15.461Z,101409.78
2023-02-11T06:01:43.845Z,101401.06
2023-02-11T06:04:12.358Z,101400.22
2023-02-11T06:06:40.818Z,101405.48
2023-02-11T06:09:11.919Z,101401.55
2023-02-11T06:11:40.238Z,101396.27
2023-02-11T06:14:09.118Z,101400.27
2023-02-11T06:16:38.014Z,101391.30
2023-02-11T06:19:06.387Z,101385.05
2023-02-11T06:21:43.330Z,101386.02
2023-02-11T06:24:12.897Z,101392.48
2023-02-11T06:26:41.154Z,101395.09
2023-02-11T06:29:10.256Z,101394.05
2023-02-11T06:31:39.860Z,101395.33
2023-02-11T06:34:10.587Z,101390.97
2023-02-11T06:36:41.138Z,101402.37
2023-02-11T06:39:10.587Z,101399.88
2023-02-11T06:41:39.354Z,101402.70
2023-02-11T06:44:08.135Z,101408.50
2023-02-11T06:46:37.151Z,101401.13
2023-02-11T06:49:06.092Z,101401.20
2023-02-11T06:51:34.770Z,101398.64
2023-02-11T06:54:05.904Z,101395.70
2023-02-11T06:56:35.122Z,101397.86
2023-02-11T06:59:03.797Z,101400.52
2023-02-11T07:01:32.565Z,101399.48
2023-02-11T07:04:01.485Z,101399.67
2023-02-11T07:06:30.370Z,101398.44
2023-02-11T07:08:58.678Z,101396.37
2023-02-11T07:11:29.395Z,101382.99
2023-02-11T07:14:08.784Z,101372.95
2023-02-11T07:16:38.969Z,101368.15
2023-02-11T07:19:08.126Z,101366.95
2023-02-11T07:21:36.812Z,101363.54
2023-02-11T07:24:11.028Z,101361.45
2023-02-11T07:26:41.667Z,101362.20
2023-02-11T07:29:10.664Z,101371.30
2023-02-11T07:31:39.579Z,101366.02
2023-02-11T07:34:09.219Z,101359.45
2023-02-11T07:36:38.580Z,101358.68
2023-02-11T07:39:07.349Z,101361.69
2023-02-11T07:41:37.903Z,101362.79
2023-02-11T07:44:07.682Z,101358.25
2023-02-11T07:46:36.227Z,101357.13
2023-02-11T07:49:05.976Z,101357.84
2023-02-11T07:51:34.256Z,101357.05
2023-02-11T07:54:03.871Z,101349.44
2023-02-11T07:56:33.071Z,101354.52
2023-02-11T07:59:03.556Z,101350.40
2023-02-11T08:01:33.326Z,101353.00
2023-02-11T08:04:03.430Z,101358.39
2023-02-11T08:06:34.929Z,101368.25
2023-02-11T08:09:09.761Z,101368.98
2023-02-11T08:11:40.178Z,101368.95
2023-02-11T08:14:10.070Z,101376.13
2023-02-11T08:16:40.623Z,101372.82
2023-02-11T08:19:14.679Z,101374.11
2023-02-11T08:21:43.863Z,101376.23
2023-02-11T08:24:13.461Z,101380.41
2023-02-11T08:26:42.954Z,101385.98
2023-02-11T08:29:15.339Z,101386.98
2023-02-11T08:31:47.335Z,101394.64
2023-02-11T08:34:19.571Z,101392.04
2023-02-11T08:36:49.077Z,101399.05
2023-02-11T08:39:21.197Z,101401.19
2023-02-11T08:41:52.567Z,101395.55
2023-02-11T08:44:22.608Z,101391.21
2023-02-11T08:46:53.153Z,101391.59
2023-02-11T08:49:22.557Z,101391.83
2023-02-11T08:51:51.471Z,101384.03
2023-02-11T08:54:20.140Z,101384.28
2023-02-11T08:56:53.406Z,101376.89
2023-02-11T08:59:21.883Z,101371.50
2023-02-11T09:01:50.901Z,101362.23
2023-02-11T09:04:19.675Z,101354.58
2023-02-11T09:06:48.268Z,101344.69
2023-02-11T09:09:17.678Z,101337.59
2023-02-11T09:11:46.720Z,101336.08
2023-02-11T09:14:29.950Z,101344.02
2023-02-11T09:17:50.101Z,101345.23
2023-02-11T09:20:30.380Z,101339.19
2023-02-11T09:22:59.984Z,101330.45
2023-02-11T09:25:29.360Z,101324.61
2023-02-11T09:27:58.216Z,101320.36
2023-02-11T09:30:26.782Z,101328.60
2023-02-11T09:32:55.764Z,101326.52
2023-02-11T09:35:24.735Z,101326.95
2023-02-11T09:37:54.153Z,101324.16
2023-02-11T09:40:23.539Z,101320.81
2023-02-11T09:42:53.146Z,101313.13
2023-02-11T09:45:27.375Z,101303.37
2023-02-11T09:48:00.667Z,101305.09
2023-02-11T09:50:40.095Z,101303.74
2023-02-11T09:53:33.157Z,101289.89
2023-02-11T09:56:11.306Z,101285.19
2023-02-11T09:58:42.651Z,101287.39
2023-02-11T10:01:22.253Z,101284.83
2023-02-11T10:04:01.337Z,101284.70
2023-02-11T10:06:39.330Z,101295.33
2023-02-11T10:09:32.994Z,101310.23
2023-02-11T10:12:10.955Z,101298.03
2023-02-11T10:15:20.980Z,101287.04
2023-02-11T10:18:16.606Z,101280.22
2023-02-11T10:21:07.588Z,101278.44
2023-02-11T10:23:41.343Z,101278.11
2023-02-11T10:26:17.463Z,101286.40
2023-02-11T10:28:53.523Z,101291.48
2023-02-11T10:31:49.130Z,101284.04
2023-02-11T10:34:18.549Z,101279.09
2023-02-11T10:36:47.239Z,101272.56
2023-02-11T10:39:20.220Z,101270.55
2023-02-11T10:41:57.938Z,101266.02
2023-02-11T10:44:36.658Z,101269.98
2023-02-11T10:47:13.123Z,101276.24
2023-02-11T10:49:44.275Z,101278.64
2023-02-11T10:52:12.697Z,101268.98
2023-02-11T10:54:41.193Z,101262.34
2023-02-11T10:57:20.087Z,101266.83
2023-02-11T10:59:49.541Z,101277.92
2023-02-11T11:02:20.826Z,101291.67
2023-02-11T11:04:49.731Z,101301.55
2023-02-11T11:07:22.419Z,101303.86
2023-02-11T11:10:24.819Z,101302.12
2023-02-11T11:12:53.260Z,101295.59
2023-02-11T11:15:30.776Z,101286.64
2023-02-11T11:18:22.598Z,101290.67
2023-02-11T11:21:04.285Z,101285.82
2023-02-11T11:23:36.974Z,101272.03
2023-02-11T11:26:10.582Z,101270.78
2023-02-11T11:28:49.912Z,101255.45
2023-02-11T11:31:28.847Z,101258.14
2023-02-11T11:33:59.904Z,101264.36
2023-02-11T11:36:38.514Z,101267.54
2023-02-11T11:39:30.124Z,101265.27
2023-02-11T11:42:01.032Z,101250.52
2023-02-11T11:44:36.309Z,101256.86
2023-02-11T11:47:14.122Z,101250.48
2023-02-11T11:49:43.316Z,101251.96
2023-02-11T11:52:48.965Z,101256.49
2023-02-11T11:55:22.515Z,101261.05
2023-02-11T11:57:51.978Z,101262.33
2023-02-11T12:00:32.548Z,101264.13
2023-02-11T12:03:24.454Z,101264.84
2023-02-11T12:06:21.641Z,101262.79
2023-02-11T12:09:15.212Z,101264.67
2023-02-11T12:12:15.369Z,101257.35
2023-02-11T12:14:55.079Z,101247.47
2023-02-11T12:17:33.472Z,101245.21
2023-02-11T12:20:34.325Z,101239.05
2023-02-11T12:23:56.442Z,101226.47
2023-02-11T12:26:36.560Z,101226.42
2023-02-11T12:29:36.371Z,101227.40
2023-02-11T12:32:15.657Z,101208.90
2023-02-11T12:35:02.729Z,101211.98
2023-02-11T12:37:55.071Z,101223.91
2023-02-11T12:40:42.807Z,101237.21
2023-02-11T12:43:45.300Z,101219.61
2023-02-11T12:46:35.253Z,101201.56
2023-02-11T12:49:26.617Z,101204.73
2023-02-11T12:52:12.594Z,101201.27
2023-02-11T12:55:02.898Z,101188.23
2023-02-11T12:57:33.834Z,101184.13
2023-02-11T13:00:17.474Z,101184.55
2023-02-11T13:03:11.762Z,101183.08
2023-02-11T13:05:54.696Z,101188.83
2023-02-11T13:08:28.508Z,101205.01
2023-02-11T13:11:04.909Z,101204.67
2023-02-11T13:13:46.457Z,101202.42
2023-02-11T13:16:57.308Z,101204.61
2023-02-11T13:19:35.887Z,101203.91
2023-02-11T13:22:10.719Z,101203.60
2023-02-11T13:24:53.243Z,101199.75
2023-02-11T13:27:59.221Z,101200.96
2023-02-11T13:30:40.084Z,101200.55
2023-02-11T13:33:24.696Z,101202.73
2023-02-11T13:35:58.749Z,101198.80
2023-02-11T13:38:42.380Z,101199.61
2023-02-11T13:41:31.448Z,101205.63
2023-02-11T13:44:11.314Z,101199.40
2023-02-11T13:46:57.692Z,101201.50
2023-02-11T13:49:43.976Z,101195.50
2023-02-11T13:52:31.505Z,101190.42
2023-02-11T13:55:10.753Z,101203.67
2023-02-11T13:57:41.927Z,101201.95
2023-02-11T14:00:31.975Z,101197.07
2023-02-11T14:03:31.548Z,101198.98
2023-02-11T14:06:27.883Z,101199.48
2023-02-11T14:09:17.476Z,101205.77
2023-02-11T14:11:55.520Z,101201.70
2023-02-11T14:14:32.218Z,101205.17
2023-02-11T14:17:04.826Z,101208.70
2023-02-11T14:19:34.815Z,101211.77
2023-02-11T14:22:16.724Z,101216.16
2023-02-11T14:25:03.319Z,101211.00
2023-02-11T14:27:41.139Z,101214.48
2023-02-11T14:30:09.997Z,101215.62
2023-02-11T14:33:07.476Z,101219.27
2023-02-11T14:35:45.690Z,101227.94
2023-02-11T14:38:30.244Z,101230.57
2023-02-11T14:41:11.644Z,101227.52
2023-02-11T14:43:50.704Z,101236.92
2023-02-11T14:46:22.368Z,101239.83
2023-02-11T14:48:54.083Z,101242.02
2023-02-11T14:51:32.007Z,101246.02
2023-02-11T14:54:15.626Z,101251.20
2023-02-11T14:56:47.283Z,101263.84
2023-02-11T14:59:22.976Z,101261.13
2023-02-11T15:01:56.677Z,101262.17
2023-02-11T15:04:32.001Z,101259.55
2023-02-11T15:07:07.556Z,101257.08
2023-02-11T15:09:51.332Z,101257.27
2023-02-11T15:12:25.462Z,101269.36
2023-02-11T15:15:00.776Z,101274.59
2023-02-11T15:17:32.820Z,101269.09
2023-02-11T15:20:03.391Z,101273.80
2023-02-11T15:22:37.164Z,101274.30
2023-02-11T15:25:17.511Z,101271.26
2023-02-11T15:27:50.909Z,101271.35
2023-02-11T15:30:23.596Z,101276.52
2023-02-11T15:33:03.975Z,101285.23
2023-02-11T15:35:36.960Z,101283.91
2023-02-11T15:38:06.802Z,101281.81
2023-02-11T15:40:38.122Z,101282.58
2023-02-11T15:43:10.001Z,101286.98
2023-02-11T15:45:43.083Z,101290.10
2023-02-11T15:48:20.635Z,101289.22
2023-02-11T15:50:54.530Z,101291.13
2023-02-11T15:53:32.192Z,101293.00
2023-02-11T15:56:04.500Z,101295.91
2023-02-11T15:58:43.081Z,101301.90
2023-02-11T16:01:13.096Z,101305.34
2023-02-11T16:03:43.740Z,101298.91
2023-02-11T16:06:27.077Z,101305.31
2023-02-11T16:09:03.130Z,101297.19
2023-02-11T16:11:35.481Z,101304.52
2023-02-11T16:14:39.567Z,101304.33
2023-02-11T16:17:23.336Z,101305.10
2023-02-11T16:19:54.674Z,101312.30
2023-02-11T16:22:29.376Z,101310.52
2023-02-11T16:25:00.949Z,101305.41
2023-02-11T16:27:39.111Z,101297.30
2023-02-11T16:30:28.196Z,101296.33
2023-02-11T16:32:57.547Z,101296.60
2023-02-11T16:35:27.117Z,101301.27
2023-02-11T16:37:56.605Z,101297.83
2023-02-11T16:40:25.927Z,101301.27
2023-02-11T16:42:54.789Z,101306.82
2023-02-11T16:45:23.401Z,101304.52
2023-02-11T16:47:53.007Z,101307.98
2023-02-11T16:50:27.312Z,101312.27
2023-02-11T16:52:59.888Z,101312.42
2023-02-11T16:55:30.336Z,101313.48
2023-02-11T16:58:00.060Z,101320.49
2023-02-11T17:00:29.784Z,101324.99
2023-02-11T17:02:59.476Z,101322.41
2023-02-11T17:05:28.253Z,101328.08
2023-02-11T17:07:56.722Z,101329.27
2023-02-11T17:10:25.940Z,101332.64
2023-02-11T17:12:55.061Z,101333.77
2023-02-11T17:15:24.328Z,101338.29
2023-02-11T17:17:53.637Z,101348.23
2023-02-11T17:20:24.078Z,101355.67
2023-02-11T17:22:53.032Z,101358.48
2023-02-11T17:25:23.585Z,101359.45
2023-02-11T17:27:52.937Z,101362.95
2023-02-11T17:30:23.145Z,101362.10
2023-02-11T17:32:52.028Z,101369.89
2023-02-11T17:35:20.898Z,101377.91
2023-02-11T17:37:50.231Z,101380.67
2023-02-11T17:40:19.643Z,101380.52
2023-02-11T17:42:48.426Z,101392.70
2023-02-11T17:45:17.426Z,101393.05
2023-02-11T17:47:49.494Z,101406.05
2023-02-11T17:50:18.769Z,101412.81
2023-02-11T17:52:47.879Z,101426.88
2023-02-11T17:55:17.212Z,101426.00
2023-02-11T17:57:49.461Z,101429.91
2023-02-11T18:00:19.437Z,101426.24
2023-02-11T18:02:48.688Z,101423.42
2023-02-11T18:05:18.086Z,101422.51
2023-02-11T18:07:48.808Z,101423.42
2023-02-11T18:10:17.925Z,101417.45
2023-02-11T18:12:46.733Z,101419.58
2023-02-11T18:15:16.214Z,101421.30
2023-02-11T18:17:44.821Z,101420.92
2023-02-11T18:20:14.431Z,101426.58
2023-02-11T18:22:47.567Z,101431.05
2023-02-11T18:25:20.726Z,101436.23
2023-02-11T18:27:50.008Z,101434.45
2023-02-11T18:30:22.591Z,101441.45
2023-02-11T18:32:56.192Z,101438.06
2023-02-11T18:35:26.319Z,101437.56
2023-02-11T18:37:56.197Z,101441.81
2023-02-11T18:40:26.799Z,101442.48
2023-02-11T18:42:58.444Z,101445.10
2023-02-11T18:45:32.690Z,101446.20
2023-02-11T18:48:07.274Z,101445.11
2023-02-11T18:50:37.272Z,101446.46
2023-02-11T18:53:08.232Z,101450.49
2023-02-11T18:55:40.294Z,101447.54
2023-02-11T18:58:09.617Z,101449.93
2023-02-11T19:00:44.335Z,101456.89
2023-02-11T19:03:13.232Z,101463.62
2023-02-11T19:05:48.473Z,101465.41
2023-02-11T19:08:17.872Z,101444.70
2023-02-11T19:10:49.857Z,101464.83
2023-02-11T19:13:21.103Z,101461.81
2023-02-11T19:15:58.960Z,101464.00
2023-02-11T19:18:39.154Z,101463.38
2023-02-11T19:21:10.614Z,101464.36
2023-02-11T19:23:40.334Z,101459.92
2023-02-11T19:26:10.753Z,101461.39
2023-02-11T19:28:39.758Z,101467.04
2023-02-11T19:31:09.636Z,101463.77
2023-02-11T19:33:38.860Z,101462.80
2023-02-11T19:36:08.461Z,101463.41
2023-02-11T19:38:38.480Z,101457.52
2023-02-11T19:41:08.635Z,101467.16
2023-02-11T19:43:43.663Z,101469.41
2023-02-11T19:46:12.612Z,101469.99
2023-02-11T19:48:42.537Z,101473.85
2023-02-11T19:51:13.410Z,101477.84
2023-02-11T19:53:43.133Z,101483.58
2023-02-11T19:56:13.547Z,101481.73
2023-02-11T19:58:43.159Z,101485.26
2023-02-11T20:01:15.690Z,101488.88
2023-02-11T20:03:45.551Z,101487.95
2023-02-11T20:06:23.654Z,101493.95
2023-02-11T20:09:03.827Z,101498.09
2023-02-11T20:11:35.984Z,101504.68
2023-02-11T20:14:07.039Z,101508.80
2023-02-11T20:16:47.682Z,101510.76
2023-02-11T20:19:21.753Z,101509.08
2023-02-11T20:21:58.739Z,101512.65
2023-02-11T20:24:28.739Z,101510.10
2023-02-11T20:26:59.759Z,101512.93
2023-02-11T20:29:32.217Z,101518.36
2023-02-11T20:32:00.931Z,101514.81
2023-02-11T20:34:30.037Z,101510.64
2023-02-11T20:36:59.761Z,101483.67
2023-02-11T20:39:28.547Z,101504.94
2023-02-11T20:41:57.850Z,101505.41
2023-02-11T20:44:27.372Z,101513.29
2023-02-11T20:46:56.540Z,101517.33
2023-02-11T20:49:28.906Z,101527.85
2023-02-11T20:52:00.602Z,101527.05
2023-02-11T20:54:30.973Z,101533.08
2023-02-11T20:57:01.853Z,101540.54
2023-02-11T20:59:31.433Z,101544.17
2023-02-11T21:02:01.935Z,101543.70
2023-02-11T21:04:33.240Z,101544.73
2023-02-11T21:07:02.640Z,101550.55
2023-02-11T21:09:33.554Z,101557.83
2023-02-11T21:12:03.310Z,101569.73
2023-02-11T21:14:32.387Z,101575.27
2023-02-11T21:17:01.200Z,101576.77
2023-02-11T21:19:30.405Z,101587.45
2023-02-11T21:22:00.815Z,101590.98
2023-02-11T21:24:31.364Z,101593.38
2023-02-11T21:27:00.143Z,101601.45
2023-02-11T21:29:29.048Z,101604.37
2023-02-11T21:31:57.774Z,101604.23
2023-02-11T21:34:27.229Z,101597.37
2023-02-11T21:36:56.344Z,101595.41
2023-02-11T21:39:25.444Z,101599.33
2023-02-11T21:41:56.378Z,101605.26
2023-02-11T21:44:25.278Z,101611.45
2023-02-11T21:46:54.878Z,101618.58
2023-02-11T21:49:24.080Z,101618.66
2023-02-11T21:51:53.811Z,101613.08
2023-02-11T21:54:27.142Z,101619.34
2023-02-11T21:56:57.119Z,101624.38
2023-02-11T21:59:26.206Z,101630.52
2023-02-11T22:01:55.679Z,101631.43
2023-02-11T22:04:28.479Z,101637.66
2023-02-11T22:06:59.497Z,101643.60
2023-02-11T22:09:29.153Z,101634.70
2023-02-11T22:11:57.849Z,101633.59
2023-02-11T22:14:26.440Z,101639.23
2023-02-11T22:16:56.100Z,101645.33
2023-02-11T22:19:27.188Z,101657.13
2023-02-11T22:21:56.300Z,101664.09
2023-02-11T22:24:26.886Z,101669.79
2023-02-11T22:26:56.107Z,101671.48
2023-02-11T22:29:31.140Z,101681.04
2023-02-11T22:32:00.269Z,101684.32
2023-02-11T22:34:29.022Z,101683.61
2023-02-11T22:36:59.206Z,101683.02
2023-02-11T22:39:29.242Z,101692.09
2023-02-11T22:41:58.053Z,101691.48
2023-02-11T22:44:26.958Z,101693.71
2023-02-11T22:46:56.331Z,101697.93
2023-02-11T22:49:25.276Z,101704.70
2023-02-11T22:51:54.741Z,101701.05
2023-02-11T22:54:23.751Z,101698.61
2023-02-11T22:56:54.121Z,101706.52
2023-02-11T22:59:23.433Z,101707.34
2023-02-11T23:01:52.846Z,101708.00
2023-02-11T23:04:25.327Z,101702.27
2023-02-11T23:06:53.692Z,101700.17
2023-02-11T23:09:22.399Z,101701.22
2023-02-11T23:11:54.416Z,101704.00
2023-02-11T23:14:22.833Z,101700.58
2023-02-11T23:16:51.652Z,101691.47
2023-02-11T23:19:21.542Z,101691.41
2023-02-11T23:21:51.962Z,101694.46
2023-02-11T23:24:21.068Z,101698.90
2023-02-11T23:26:50.201Z,101703.45
2023-02-11T23:29:19.250Z,101704.59
2023-02-11T23:31:47.839Z,101701.01
2023-02-11T23:34:17.460Z,101698.55
2023-02-11T23:36:46.242Z,101700.92
2023-02-11T23:39:15.965Z,101703.89
2023-02-11T23:41:45.444Z,101708.20
2023-02-11T23:44:13.730Z,101715.52
2023-02-11T23:46:42.320Z,101728.23
2023-02-11T23:49:11.032Z,101728.23
2023-02-11T23:51:39.266Z,101734.34
2023-02-11T23:54:07.447Z,101733.11
2023-02-11T23:56:37.078Z,101733.02
2023-02-11T23:59:06.185Z,101732.84
